Massachusetts — WDH5399 — position and weather

sailwx.info

Track history (hours):
 
Tides and Currents Weather Stations Pressure Air Temp Water Temp Dewpoint Dewpoint Depression Visibility Wind Speed Wind Dir Waves Ship Positions

Massachusetts

Owner: Massachusetts Bay Lines 60 rowes wharf boston, ma 02110, boston, MA. More information available from US FCC via Universal Licensing System and Coast Guard Vessel Documentation Center.

Last reported at 2017-Sep-19 20:57 UTC. Time now 2017-Sep-20 22:09 UTC.
Position N 42°15' W 070°55'.

Length 30 m.

Type: Passenger vessel. MMSI: 367627580.

Date/timePositionNaut miles runAvg speedWind from/ knotsBaromVisibWave heightAir tempDewpointWater temp
2017-Sep-19 20:57N 42°15' W 070°55'2 4.2
2017-Sep-19 20:30N 42°17' W 070°56'713.2
2017-Sep-19 20:00N 42°21' W 071°03'0 0.0
2017-Sep-19 19:30N 42°21' W 071°03'0 0.0
2017-Sep-19 19:00N 42°21' W 071°03'0 0.0
2017-Sep-19 18:31N 42°21' W 071°03'0 0.0
2017-Sep-19 18:00N 42°21' W 071°03'0 0.0
2017-Sep-19 17:30N 42°21' W 071°03'0 0.0
2017-Sep-19 17:00N 42°21' W 071°03'0 0.0
2017-Sep-19 16:30N 42°21' W 071°03'0 0.0
2017-Sep-19 16:00N 42°21' W 071°03'0 0.0
2017-Sep-19 15:30N 42°21' W 071°03'0 0.3
2017-Sep-19 15:00N 42°21' W 071°03'0 0.2
2017-Sep-19 14:31N 42°21' W 071°03'1 1.0
2017-Sep-19 14:00N 42°22' W 071°02'1 1.2
2017-Sep-19 13:30N 42°21' W 071°03'0 0.2
2017-Sep-19 13:00N 42°21' W 071°03'715.0
2017-Sep-19 12:30N 42°16' W 070°56'1 2.0
2017-Sep-19 12:01N 42°17' W 070°56'713.0
2017-Sep-19 11:30N 42°21' W 071°03'714.7
2017-Sep-19 11:00N 42°16' W 070°56'1 2.5
2017-Sep-19 10:30N 42°15' W 070°55'0 0.0
2017-Sep-18 22:39N 42°15' W 070°55'0 0.1
2017-Sep-18 22:30N 42°15' W 070°55'4 8.7
2017-Sep-18 22:00N 42°19' W 070°59'4 8.2
2017-Sep-18 21:30N 42°21' W 071°03'612.4
2017-Sep-18 21:00N 42°17' W 070°57'1 1.8
2017-Sep-18 20:31N 42°17' W 070°56'714.2
2017-Sep-18 20:00N 42°21' W 071°03'0 0.0
2017-Sep-18 19:31N 42°21' W 071°03'0 0.0
2017-Sep-18 19:00N 42°21' W 071°03'0 0.0
2017-Sep-18 18:30N 42°21' W 071°03'0 0.0
2017-Sep-18 18:00N 42°21' W 071°03'0 0.3
2017-Sep-18 17:31N 42°21' W 071°03'0 0.3
2017-Sep-18 17:00N 42°21' W 071°03'0 0.0
2017-Sep-18 16:30N 42°21' W 071°03'0 0.0
2017-Sep-18 16:00N 42°21' W 071°03'0 0.0
2017-Sep-18 15:30N 42°21' W 071°03'0 0.0
2017-Sep-18 15:00N 42°21' W 071°03'0 0.0
2017-Sep-18 14:30N 42°21' W 071°03'1 1.2
2017-Sep-18 14:00N 42°22' W 071°03'1 1.3
2017-Sep-18 13:31N 42°21' W 071°03'0 0.0
2017-Sep-18 13:00N 42°21' W 071°03'714.4
2017-Sep-18 12:30N 42°16' W 070°56'1 2.5
2017-Sep-18 12:01N 42°17' W 070°57'612.5
2017-Sep-18 11:30N 42°21' W 071°03'714.5
2017-Sep-18 11:00N 42°16' W 070°56'  
2017-Sep-15 22:24N 42°15' W 070°55'4 9.2
2017-Sep-15 22:00N 42°18' W 070°58'5 8.0
2017-Sep-15 21:24N 42°21' W 071°03'615.0
2017-Sep-15 21:00N 42°17' W 070°57'2 3.3
2017-Sep-15 20:30N 42°16' W 070°56'811.8
2017-Sep-15 19:52N 42°21' W 071°03'0 0.4
2017-Sep-15 19:30N 42°21' W 071°03'0 0.3
2017-Sep-15 19:00N 42°21' W 071°03'0 0.0
2017-Sep-15 18:30N 42°21' W 071°03'0 0.0
2017-Sep-15 18:00N 42°21' W 071°03'0 0.0
2017-Sep-15 17:30N 42°21' W 071°03'0 0.0
2017-Sep-15 17:00N 42°21' W 071°03'0 0.0
2017-Sep-15 16:30N 42°21' W 071°03'0 0.0
2017-Sep-15 16:00N 42°21' W 071°03'0 0.0
2017-Sep-15 15:07N 42°21' W 071°03'0 3.9
2017-Sep-15 15:01N 42°22' W 071°02'0 0.5
2017-Sep-15 14:09N 42°21' W 071°03'1 4.7
2017-Sep-15 14:00N 42°22' W 071°03'1 1.3
2017-Sep-15 13:30N 42°21' W 071°03'0 0.1
2017-Sep-15 13:00N 42°21' W 071°03'714.3
2017-Sep-15 12:31N 42°16' W 070°56'0 0.9
2017-Sep-15 12:00N 42°17' W 070°56'713.4
2017-Sep-15 11:30N 42°21' W 071°03'714.4
2017-Sep-15 11:00N 42°16' W 070°56'1 2.1
2017-Sep-15 10:22N 42°15' W 070°55'0 0.0
2017-Sep-14 22:25N 42°15' W 070°55'4 9.4
2017-Sep-14 22:00N 42°18' W 070°58'5 8.5
2017-Sep-14 21:28N 42°21' W 071°03'612.8
2017-Sep-14 21:01N 42°17' W 070°57'2 3.8
2017-Sep-14 20:31N 42°16' W 070°56'815.0
2017-Sep-14 20:00N 42°21' W 071°03'1 1.5
2017-Sep-14 19:30N 42°22' W 071°03'1 0.3
2017-Sep-14 15:29N 42°23' W 071°03'2 3.9
2017-Sep-14 15:00N 42°21' W 071°03'1 1.3
2017-Sep-14 14:30N 42°21' W 071°02'1 2.8
2017-Sep-14 14:01N 42°22' W 071°03'1 1.4
2017-Sep-14 13:21N 42°21' W 071°03'0 0.5
2017-Sep-14 13:00N 42°21' W 071°03'714.7
2017-Sep-14 12:31N 42°16' W 070°56'1 2.6
2017-Sep-14 12:00N 42°17' W 070°57'612.0
2017-Sep-14 11:30N 42°21' W 071°03'714.6
2017-Sep-14 11:00N 42°16' W 070°56'1 2.5
2017-Sep-14 10:30N 42°15' W 070°55'0 0.0
2017-Sep-13 22:28N 42°15' W 070°55'4 9.0
2017-Sep-13 22:00N 42°18' W 070°59'4 8.6
2017-Sep-13 21:30N 42°21' W 071°03'612.5
2017-Sep-13 21:00N 42°17' W 070°57'1 1.7
2017-Sep-13 20:31N 42°16' W 070°56'714.1
2017-Sep-13 20:00N 42°21' W 071°03'1 2.7
2017-Sep-13 19:30N 42°23' W 071°03'1 1.0
2017-Sep-13 19:00N 42°23' W 071°03'0 0.0
2017-Sep-13 18:30N 42°23' W 071°03'0 0.0
2017-Sep-13 18:00N 42°23' W 071°03'0 0.0
2017-Sep-13 17:30N 42°23' W 071°03'0 0.0
2017-Sep-13 17:00N 42°23' W 071°03'0 0.0
2017-Sep-13 16:30N 42°23' W 071°03'0 0.0
2017-Sep-13 16:00N 42°23' W 071°03'0 0.0
2017-Sep-13 15:31N 42°23' W 071°03'1 2.9
2017-Sep-13 15:00N 42°22' W 071°02'1 1.4
2017-Sep-13 14:30N 42°21' W 071°03'0 0.8
2017-Sep-13 14:01N 42°22' W 071°03'0 0.6
2017-Sep-13 13:30N 42°21' W 071°03'0 0.6
2017-Sep-13 13:00N 42°21' W 071°03'714.6
2017-Sep-13 12:31N 42°16' W 070°56'1 2.0
2017-Sep-13 12:01N 42°17' W 070°57'612.5
2017-Sep-13 11:30N 42°21' W 071°03'714.1
2017-Sep-13 11:01N 42°17' W 070°56'1 2.9
2017-Sep-13 10:30N 42°15' W 070°55'0 0.0
2017-Sep-12 22:28N 42°15' W 070°55'4 7.7
2017-Sep-12 22:00N 42°18' W 070°58'5 9.7
2017-Sep-12 21:30N 42°21' W 071°03'611.3
2017-Sep-12 21:00N 42°17' W 070°57'2 3.8
2017-Sep-12 20:30N 42°16' W 070°56'815.6
2017-Sep-12 20:00N 42°21' W 071°03'0 0.4
2017-Sep-12 19:31N 42°21' W 071°03'2 3.5
2017-Sep-12 19:00N 42°23' W 071°03'0 0.0
2017-Sep-12 18:30N 42°23' W 071°03'0 0.0
2017-Sep-12 18:00N 42°23' W 071°03'0 0.0
2017-Sep-12 17:30N 42°23' W 071°03'0 0.0
2017-Sep-12 17:00N 42°23' W 071°03'0 0.0
2017-Sep-12 16:30N 42°23' W 071°03'0 0.0
2017-Sep-12 16:00N 42°23' W 071°03'0 0.0
2017-Sep-12 15:30N 42°23' W 071°03'0 0.0
2017-Sep-12 15:00N 42°23' W 071°03'0 0.0
2017-Sep-12 14:30N 42°23' W 071°03'0 0.0
2017-Sep-12 14:00N 42°23' W 071°03'0 0.4
2017-Sep-12 13:30N 42°23' W 071°03'2 3.3
2017-Sep-12 13:00N 42°21' W 071°03'815.4
2017-Sep-12 12:30N 42°16' W 070°55'1 2.8
2017-Sep-12 12:00N 42°17' W 070°57'612.8
2017-Sep-12 11:30N 42°21' W 071°03'714.2
2017-Sep-12 11:01N 42°17' W 070°56'1 2.9
2017-Sep-12 10:29N 42°15' W 070°55'0 0.0
2017-Sep-11 22:28N 42°15' W 070°55'4 8.5
2017-Sep-11 22:00N 42°18' W 070°59'4 8.9
2017-Sep-11 21:30N 42°21' W 071°03'612.7
2017-Sep-11 21:00N 42°17' W 070°57'1 2.6
2017-Sep-11 20:30N 42°16' W 070°56'815.2
2017-Sep-11 20:00N 42°21' W 071°03'0 0.0
2017-Sep-11 19:30N 42°21' W 071°03'0 0.0
2017-Sep-11 19:00N 42°21' W 071°03'0 0.0
2017-Sep-11 18:30N 42°21' W 071°03'0 0.0
2017-Sep-11 18:00N 42°21' W 071°03'0 0.0
2017-Sep-11 17:30N 42°21' W 071°03'0 0.0
2017-Sep-11 16:59N 42°21' W 071°03'0 0.0
2017-Sep-11 16:23N 42°21' W 071°03'0 0.0
2017-Sep-11 15:54N 42°21' W 071°03'0 0.0
2017-Sep-11 15:29N 42°21' W 071°03'0 0.0
2017-Sep-11 15:00N 42°21' W 071°03'1 1.1
2017-Sep-11 14:30N 42°22' W 071°02'1 1.9
2017-Sep-11 14:00N 42°22' W 071°03'1 1.7
2017-Sep-11 13:30N 42°21' W 071°03'0 0.3
2017-Sep-11 13:00N 42°21' W 071°03'714.5
2017-Sep-11 12:30N 42°16' W 070°56'1 2.4
2017-Sep-11 12:00N 42°17' W 070°57'612.4
2017-Sep-11 11:30N 42°21' W 071°03'714.4
2017-Sep-11 11:00N 42°16' W 070°56'1 2.6
2017-Sep-11 10:30N 42°15' W 070°55'  
Track history (hours):
 
Tides and Currents Weather Stations Pressure Air Temp Water Temp Dewpoint Dewpoint Depression Visibility Wind Speed Wind Dir Waves Ship Positions

Massachusetts

Owner: Massachusetts Bay Lines 60 rowes wharf boston, ma 02110, boston, MA. More information available from US FCC via Universal Licensing System and Coast Guard Vessel Documentation Center.

Last reported at 2017-Sep-19 20:57 UTC. Time now 2017-Sep-20 22:09 UTC.
Position N 42°15' W 070°55'.

Length 30 m.

Type: Passenger vessel. MMSI: 367627580.

Date/timePositionNaut miles runAvg speedWind from/ knotsBaromVisibWave heightAir tempDewpointWater temp
2017-Sep-19 20:57N 42°15' W 070°55'2 4.2
2017-Sep-19 20:30N 42°17' W 070°56'713.2
2017-Sep-19 20:00N 42°21' W 071°03'0 0.0
2017-Sep-19 19:30N 42°21' W 071°03'0 0.0
2017-Sep-19 19:00N 42°21' W 071°03'0 0.0
2017-Sep-19 18:31N 42°21' W 071°03'0 0.0
2017-Sep-19 18:00N 42°21' W 071°03'0 0.0
2017-Sep-19 17:30N 42°21' W 071°03'0 0.0
2017-Sep-19 17:00N 42°21' W 071°03'0 0.0
2017-Sep-19 16:30N 42°21' W 071°03'0 0.0
2017-Sep-19 16:00N 42°21' W 071°03'0 0.0
2017-Sep-19 15:30N 42°21' W 071°03'0 0.3
2017-Sep-19 15:00N 42°21' W 071°03'0 0.2
2017-Sep-19 14:31N 42°21' W 071°03'1 1.0
2017-Sep-19 14:00N 42°22' W 071°02'1 1.2
2017-Sep-19 13:30N 42°21' W 071°03'0 0.2
2017-Sep-19 13:00N 42°21' W 071°03'715.0
2017-Sep-19 12:30N 42°16' W 070°56'1 2.0
2017-Sep-19 12:01N 42°17' W 070°56'713.0
2017-Sep-19 11:30N 42°21' W 071°03'714.7
2017-Sep-19 11:00N 42°16' W 070°56'1 2.5
2017-Sep-19 10:30N 42°15' W 070°55'0 0.0
2017-Sep-18 22:39N 42°15' W 070°55'0 0.1
2017-Sep-18 22:30N 42°15' W 070°55'4 8.7
2017-Sep-18 22:00N 42°19' W 070°59'4 8.2
2017-Sep-18 21:30N 42°21' W 071°03'612.4
2017-Sep-18 21:00N 42°17' W 070°57'1 1.8
2017-Sep-18 20:31N 42°17' W 070°56'714.2
2017-Sep-18 20:00N 42°21' W 071°03'0 0.0
2017-Sep-18 19:31N 42°21' W 071°03'0 0.0
2017-Sep-18 19:00N 42°21' W 071°03'0 0.0
2017-Sep-18 18:30N 42°21' W 071°03'0 0.0
2017-Sep-18 18:00N 42°21' W 071°03'0 0.3
2017-Sep-18 17:31N 42°21' W 071°03'0 0.3
2017-Sep-18 17:00N 42°21' W 071°03'0 0.0
2017-Sep-18 16:30N 42°21' W 071°03'0 0.0
2017-Sep-18 16:00N 42°21' W 071°03'0 0.0
2017-Sep-18 15:30N 42°21' W 071°03'0 0.0
2017-Sep-18 15:00N 42°21' W 071°03'0 0.0
2017-Sep-18 14:30N 42°21' W 071°03'1 1.2
2017-Sep-18 14:00N 42°22' W 071°03'1 1.3
2017-Sep-18 13:31N 42°21' W 071°03'0 0.0
2017-Sep-18 13:00N 42°21' W 071°03'714.4
2017-Sep-18 12:30N 42°16' W 070°56'1 2.5
2017-Sep-18 12:01N 42°17' W 070°57'612.5
2017-Sep-18 11:30N 42°21' W 071°03'714.5
2017-Sep-18 11:00N 42°16' W 070°56'  
2017-Sep-15 22:24N 42°15' W 070°55'4 9.2
2017-Sep-15 22:00N 42°18' W 070°58'5 8.0
2017-Sep-15 21:24N 42°21' W 071°03'615.0
2017-Sep-15 21:00N 42°17' W 070°57'2 3.3
2017-Sep-15 20:30N 42°16' W 070°56'811.8
2017-Sep-15 19:52N 42°21' W 071°03'0 0.4
2017-Sep-15 19:30N 42°21' W 071°03'0 0.3
2017-Sep-15 19:00N 42°21' W 071°03'0 0.0
2017-Sep-15 18:30N 42°21' W 071°03'0 0.0
2017-Sep-15 18:00N 42°21' W 071°03'0 0.0
2017-Sep-15 17:30N 42°21' W 071°03'0 0.0
2017-Sep-15 17:00N 42°21' W 071°03'0 0.0
2017-Sep-15 16:30N 42°21' W 071°03'0 0.0
2017-Sep-15 16:00N 42°21' W 071°03'0 0.0
2017-Sep-15 15:07N 42°21' W 071°03'0 3.9
2017-Sep-15 15:01N 42°22' W 071°02'0 0.5
2017-Sep-15 14:09N 42°21' W 071°03'1 4.7
2017-Sep-15 14:00N 42°22' W 071°03'1 1.3
2017-Sep-15 13:30N 42°21' W 071°03'0 0.1
2017-Sep-15 13:00N 42°21' W 071°03'714.3
2017-Sep-15 12:31N 42°16' W 070°56'0 0.9
2017-Sep-15 12:00N 42°17' W 070°56'713.4
2017-Sep-15 11:30N 42°21' W 071°03'714.4
2017-Sep-15 11:00N 42°16' W 070°56'1 2.1
2017-Sep-15 10:22N 42°15' W 070°55'0 0.0
2017-Sep-14 22:25N 42°15' W 070°55'4 9.4
2017-Sep-14 22:00N 42°18' W 070°58'5 8.5
2017-Sep-14 21:28N 42°21' W 071°03'612.8
2017-Sep-14 21:01N 42°17' W 070°57'2 3.8
2017-Sep-14 20:31N 42°16' W 070°56'815.0
2017-Sep-14 20:00N 42°21' W 071°03'1 1.5
2017-Sep-14 19:30N 42°22' W 071°03'1 0.3
2017-Sep-14 15:29N 42°23' W 071°03'2 3.9
2017-Sep-14 15:00N 42°21' W 071°03'1 1.3
2017-Sep-14 14:30N 42°21' W 071°02'1 2.8
2017-Sep-14 14:01N 42°22' W 071°03'1 1.4
2017-Sep-14 13:21N 42°21' W 071°03'0 0.5
2017-Sep-14 13:00N 42°21' W 071°03'714.7
2017-Sep-14 12:31N 42°16' W 070°56'1 2.6
2017-Sep-14 12:00N 42°17' W 070°57'612.0
2017-Sep-14 11:30N 42°21' W 071°03'714.6
2017-Sep-14 11:00N 42°16' W 070°56'1 2.5
2017-Sep-14 10:30N 42°15' W 070°55'0 0.0
2017-Sep-13 22:28N 42°15' W 070°55'4 9.0
2017-Sep-13 22:00N 42°18' W 070°59'4 8.6
2017-Sep-13 21:30N 42°21' W 071°03'612.5
2017-Sep-13 21:00N 42°17' W 070°57'1 1.7
2017-Sep-13 20:31N 42°16' W 070°56'714.1
2017-Sep-13 20:00N 42°21' W 071°03'1 2.7
2017-Sep-13 19:30N 42°23' W 071°03'1 1.0
2017-Sep-13 19:00N 42°23' W 071°03'0 0.0
2017-Sep-13 18:30N 42°23' W 071°03'0 0.0
2017-Sep-13 18:00N 42°23' W 071°03'0 0.0
2017-Sep-13 17:30N 42°23' W 071°03'0 0.0
2017-Sep-13 17:00N 42°23' W 071°03'0 0.0
2017-Sep-13 16:30N 42°23' W 071°03'0 0.0
2017-Sep-13 16:00N 42°23' W 071°03'0 0.0
2017-Sep-13 15:31N 42°23' W 071°03'1 2.9
2017-Sep-13 15:00N 42°22' W 071°02'1 1.4
2017-Sep-13 14:30N 42°21' W 071°03'0 0.8
2017-Sep-13 14:01N 42°22' W 071°03'0 0.6
2017-Sep-13 13:30N 42°21' W 071°03'0 0.6
2017-Sep-13 13:00N 42°21' W 071°03'714.6
2017-Sep-13 12:31N 42°16' W 070°56'1 2.0
2017-Sep-13 12:01N 42°17' W 070°57'612.5
2017-Sep-13 11:30N 42°21' W 071°03'714.1
2017-Sep-13 11:01N 42°17' W 070°56'1 2.9
2017-Sep-13 10:30N 42°15' W 070°55'0 0.0
2017-Sep-12 22:28N 42°15' W 070°55'4 7.7
2017-Sep-12 22:00N 42°18' W 070°58'5 9.7
2017-Sep-12 21:30N 42°21' W 071°03'611.3
2017-Sep-12 21:00N 42°17' W 070°57'2 3.8
2017-Sep-12 20:30N 42°16' W 070°56'815.6
2017-Sep-12 20:00N 42°21' W 071°03'0 0.4
2017-Sep-12 19:31N 42°21' W 071°03'2 3.5
2017-Sep-12 19:00N 42°23' W 071°03'0 0.0
2017-Sep-12 18:30N 42°23' W 071°03'0 0.0
2017-Sep-12 18:00N 42°23' W 071°03'0 0.0
2017-Sep-12 17:30N 42°23' W 071°03'0 0.0
2017-Sep-12 17:00N 42°23' W 071°03'0 0.0
2017-Sep-12 16:30N 42°23' W 071°03'0 0.0
2017-Sep-12 16:00N 42°23' W 071°03'0 0.0
2017-Sep-12 15:30N 42°23' W 071°03'0 0.0
2017-Sep-12 15:00N 42°23' W 071°03'0 0.0
2017-Sep-12 14:30N 42°23' W 071°03'0 0.0
2017-Sep-12 14:00N 42°23' W 071°03'0 0.4
2017-Sep-12 13:30N 42°23' W 071°03'2 3.3
2017-Sep-12 13:00N 42°21' W 071°03'815.4
2017-Sep-12 12:30N 42°16' W 070°55'1 2.8
2017-Sep-12 12:00N 42°17' W 070°57'612.8
2017-Sep-12 11:30N 42°21' W 071°03'714.2
2017-Sep-12 11:01N 42°17' W 070°56'1 2.9
2017-Sep-12 10:29N 42°15' W 070°55'0 0.0
2017-Sep-11 22:28N 42°15' W 070°55'4 8.5
2017-Sep-11 22:00N 42°18' W 070°59'4 8.9
2017-Sep-11 21:30N 42°21' W 071°03'612.7
2017-Sep-11 21:00N 42°17' W 070°57'1 2.6
2017-Sep-11 20:30N 42°16' W 070°56'815.2
2017-Sep-11 20:00N 42°21' W 071°03'0 0.0
2017-Sep-11 19:30N 42°21' W 071°03'0 0.0
2017-Sep-11 19:00N 42°21' W 071°03'0 0.0
2017-Sep-11 18:30N 42°21' W 071°03'0 0.0
2017-Sep-11 18:00N 42°21' W 071°03'0 0.0
2017-Sep-11 17:30N 42°21' W 071°03'0 0.0
2017-Sep-11 16:59N 42°21' W 071°03'0 0.0
2017-Sep-11 16:23N 42°21' W 071°03'0 0.0
2017-Sep-11 15:54N 42°21' W 071°03'0 0.0
2017-Sep-11 15:29N 42°21' W 071°03'0 0.0
2017-Sep-11 15:00N 42°21' W 071°03'1 1.1
2017-Sep-11 14:30N 42°22' W 071°02'1 1.9
2017-Sep-11 14:00N 42°22' W 071°03'1 1.7
2017-Sep-11 13:30N 42°21' W 071°03'0 0.3
2017-Sep-11 13:00N 42°21' W 071°03'714.5
2017-Sep-11 12:30N 42°16' W 070°56'1 2.4
2017-Sep-11 12:00N 42°17' W 070°57'612.4
2017-Sep-11 11:30N 42°21' W 071°03'714.4
2017-Sep-11 11:00N 42°16' W 070°56'1 2.6
2017-Sep-11 10:30N 42°15' W 070°55'  

Dump ship's entire track history